Time;durP1;ratioP1;P1;durP2;ratioP2;P2;SDS_P1;SDS_P2;PMS_P1;PMS_P2;Temp;Humidity;BMP_temperature;BMP_pressure;BME280_temperature;BME280_humidity;BME280_pressure;Samples;Min_cycle;Max_cycle;Signal;HPM_P1;HPM_P2
2023/02/06 00:00:15;;;;;;;30.55;18.42;;;;;;;2.75;86.85;101048.88;5057541;28;20032;-74
2023/02/06 00:02:40;;;;;;;32.88;17.73;;;;;;;2.67;86.74;101045.28;5060407;28;20055;-75
2023/02/06 00:05:05;;;;;;;32.38;17.88;;;;;;;2.76;86.83;101047.06;5064748;28;20028;-75
2023/02/06 00:07:31;;;;;;;33.15;17.90;;;;;;;2.75;86.75;101062.06;5061091;28;20138;-74
2023/02/06 00:09:56;;;;;;;32.75;17.00;;;;;;;2.82;86.39;101057.03;5062892;28;20464;-76
2023/02/06 00:12:21;;;;;;;31.95;17.67;;;;;;;2.77;86.50;101040.84;5060277;28;20075;-76
2023/02/06 00:14:47;;;;;;;35.92;15.60;;;;;;;2.81;86.27;101053.59;5060308;28;20051;-74
2023/02/06 00:17:12;;;;;;;30.13;16.92;;;;;;;2.71;86.62;101036.94;5060836;28;20052;-75
2023/02/06 00:19:38;;;;;;;31.88;15.70;;;;;;;2.86;86.44;101055.78;5065939;28;20094;-74
2023/02/06 00:22:03;;;;;;;28.40;15.68;;;;;;;2.84;86.69;101057.75;5066624;28;20037;-76
2023/02/06 00:24:28;;;;;;;36.03;17.55;;;;;;;2.79;86.47;101060.81;5065830;28;20031;-75
2023/02/06 00:26:54;;;;;;;32.78;16.70;;;;;;;2.73;86.78;101056.09;5058076;28;20119;-76
2023/02/06 00:29:19;;;;;;;35.33;17.38;;;;;;;2.78;86.58;101060.94;5056224;28;20020;-75
2023/02/06 00:31:45;;;;;;;27.77;15.07;;;;;;;2.71;87.36;101058.03;5063056;28;20550;-75
2023/02/06 00:34:10;;;;;;;29.88;16.58;;;;;;;2.74;86.81;101056.94;5055452;28;20043;-75
2023/02/06 00:36:35;;;;;;;36.40;17.83;;;;;;;2.80;86.68;101066.91;5062809;28;20032;-75
2023/02/06 00:39:01;;;;;;;29.08;16.40;;;;;;;2.81;86.41;101064.13;5057306;28;20036;-74
2023/02/06 00:41:26;;;;;;;32.22;17.48;;;;;;;2.73;86.66;101071.91;5063016;28;20488;-75
2023/02/06 00:43:52;;;;;;;29.45;15.48;;;;;;;2.62;87.49;101069.44;5054827;28;20155;-75
2023/02/06 00:46:17;;;;;;;26.10;14.73;;;;;;;2.50;87.69;101067.97;5060479;28;20054;-72
2023/02/06 00:48:42;;;;;;;30.10;15.60;;;;;;;2.54;88.12;101064.06;5058956;28;20044;-72
2023/02/06 00:51:08;;;;;;;28.35;15.30;;;;;;;2.59;88.11;101066.28;5057732;28;20043;-75
2023/02/06 00:53:33;;;;;;;28.27;16.20;;;;;;;2.65;87.38;101066.53;5057877;28;20380;-75
2023/02/06 00:55:58;;;;;;;33.78;16.77;;;;;;;2.56;87.53;101058.63;5059415;28;20051;-75
2023/02/06 00:58:24;;;;;;;32.28;17.75;;;;;;;2.56;87.54;101059.47;5061560;28;20028;-75
2023/02/06 01:00:51;;;;;;;31.85;17.38;;;;;;;2.52;88.06;101055.47;5061881;28;20562;-74
2023/02/06 01:03:16;;;;;;;29.27;16.08;;;;;;;2.47;88.42;101056.88;5067096;28;20043;-75
2023/02/06 01:05:41;;;;;;;32.38;17.13;;;;;;;2.32;88.75;101063.53;5062039;28;20029;-75
2023/02/06 01:08:07;;;;;;;30.13;15.82;;;;;;;2.31;88.94;101072.44;5065220;28;20412;-76
2023/02/06 01:10:32;;;;;;;27.60;14.65;;;;;;;2.46;89.21;101071.84;5064850;28;20024;-75
2023/02/06 01:12:58;;;;;;;28.95;15.38;;;;;;;2.60;87.95;101074.03;5065084;28;20111;-75
2023/02/06 01:15:23;;;;;;;31.45;16.98;;;;;;;2.36;88.20;101067.59;5066328;28;20104;-75
2023/02/06 01:17:48;;;;;;;34.33;17.02;;;;;;;2.29;89.06;101069.94;5061460;28;20508;-76
2023/02/06 01:20:14;;;;;;;29.95;16.45;;;;;;;2.48;88.49;101062.00;5057589;28;20067;-76
2023/02/06 01:22:39;;;;;;;35.80;16.15;;;;;;;2.65;87.81;101068.34;5061150;28;20036;-75
2023/02/06 01:25:05;;;;;;;34.10;15.63;;;;;;;2.55;87.80;101073.66;5060387;28;20427;-75
2023/02/06 01:27:30;;;;;;;36.47;16.50;;;;;;;2.50;88.19;101064.50;5064415;28;20033;-75
2023/02/06 01:29:56;;;;;;;29.40;15.45;;;;;;;2.51;88.06;101071.44;5059497;28;20067;-75
2023/02/06 01:32:21;;;;;;;30.63;15.32;;;;;;;2.34;88.74;101075.59;5062465;28;20134;-75
2023/02/06 01:34:46;;;;;;;34.58;18.25;;;;;;;2.32;89.04;101066.19;5059638;28;20024;-75
2023/02/06 01:37:12;;;;;;;27.83;15.25;;;;;;;2.40;88.54;101072.44;5058405;28;20037;-74
2023/02/06 01:39:37;;;;;;;33.85;16.15;;;;;;;2.28;88.94;101063.84;5056967;28;20083;-76
2023/02/06 01:42:04;;;;;;;27.08;15.07;;;;;;;2.29;89.05;101072.59;5058783;28;20028;-74
2023/02/06 01:44:31;;;;;;;30.48;15.90;;;;;;;2.39;89.23;101065.50;5056576;28;20519;-76
2023/02/06 01:46:57;;;;;;;32.88;15.55;;;;;;;2.45;88.85;101069.34;5061564;28;20040;-74
2023/02/06 01:49:30;;;;;;;31.10;15.35;;;;;;;2.51;88.62;101072.25;5056592;28;20032;-75
2023/02/06 01:52:03;;;;;;;28.27;15.35;;;;;;;2.50;88.33;101077.66;5055390;28;20035;-73
2023/02/06 01:54:29;;;;;;;29.25;16.48;;;;;;;2.53;87.98;101061.59;5057624;28;21200;-75
2023/02/06 01:57:00;;;;;;;32.05;15.57;;;;;;;2.47;88.39;101062.16;5057870;28;20036;-75
2023/02/06 01:59:26;;;;;;;26.45;15.88;;;;;;;2.42;88.21;101062.59;5057256;28;20033;-73
2023/02/06 02:01:51;;;;;;;27.10;15.32;;;;;;;2.56;88.07;101056.84;5056066;28;20558;-74
2023/02/06 02:04:21;;;;;;;27.83;14.88;;;;;;;2.72;87.48;101057.09;5067888;28;20074;-73
2023/02/06 02:06:57;;;;;;;24.92;14.63;;;;;;;2.58;87.56;101062.81;5063011;28;20496;-73
2023/02/06 02:09:23;;;;;;;29.33;15.93;;;;;;;1.89;89.22;101069.28;5064132;28;20037;-74
2023/02/06 02:11:48;;;;;;;27.55;15.05;;;;;;;1.91;90.32;101068.16;5063671;28;20039;-73
2023/02/06 02:14:15;;;;;;;32.35;15.77;;;;;;;2.12;89.51;101070.63;5065778;28;20028;-74
2023/02/06 02:17:43;;;;;;;30.70;15.85;;;;;;;2.38;89.41;101069.09;5063828;28;20115;-74
2023/02/06 02:20:14;;;;;;;32.80;17.73;;;;;;;1.91;89.86;101070.81;4999451;28;20029;-74
2023/02/06 02:22:58;;;;;;;36.45;17.27;;;;;;;1.65;91.77;101074.09;5003478;28;20034;-73
2023/02/06 02:25:59;;;;;;;31.65;16.27;;;;;;;1.95;91.17;101079.25;5049434;28;20455;-73
2023/02/06 02:28:49;;;;;;;26.80;14.73;;;;;;;2.37;89.98;101069.22;5058407;28;20024;-74
2023/02/06 02:31:32;;;;;;;26.70;15.00;;;;;;;2.45;89.27;101071.97;5066668;28;20028;-73
2023/02/06 02:34:19;;;;;;;25.80;14.05;;;;;;;2.51;88.74;101056.44;5066845;28;20021;-73
2023/02/06 02:37:00;;;;;;;30.08;15.13;;;;;;;2.23;88.76;101059.94;5059912;28;20575;-73
2023/02/06 02:39:39;;;;;;;28.08;15.45;;;;;;;1.94;90.10;101067.91;5060593;28;20032;-73
2023/02/06 02:42:24;;;;;;;31.55;15.90;;;;;;;1.91;89.87;101069.97;5065096;28;20043;-74
2023/02/06 02:45:13;;;;;;;30.40;15.15;;;;;;;1.88;90.89;101055.28;5061422;28;20075;-72
2023/02/06 02:48:14;;;;;;;24.60;13.70;;;;;;;1.94;90.12;101057.38;5047043;28;20048;-74
2023/02/06 02:50:40;;;;;;;19.92;12.10;;;;;;;1.79;91.13;101052.66;5021809;28;20047;-73
2023/02/06 02:53:07;;;;;;;24.48;14.32;;;;;;;1.88;91.34;101049.19;5060490;28;20036;-72
2023/02/06 02:55:32;;;;;;;26.90;13.73;;;;;;;1.84;91.89;101056.53;5064373;28;20020;-74
2023/02/06 02:58:06;;;;;;;22.25;12.98;;;;;;;2.17;91.06;101052.63;5061472;28;20037;-72
2023/02/06 03:00:37;;;;;;;20.58;13.23;;;;;;;1.80;90.77;101049.03;5058775;28;20029;-72
2023/02/06 03:03:04;;;;;;;21.67;12.38;;;;;;;1.78;91.73;101041.28;5061837;28;20473;-72
2023/02/06 03:05:35;;;;;;;23.85;12.60;;;;;;;1.43;92.29;101054.97;5058053;28;20020;-72
2023/02/06 03:08:08;;;;;;;25.67;13.73;;;;;;;1.23;93.14;101055.88;5058846;28;20058;-73
2023/02/06 03:10:45;;;;;;;28.50;15.50;;;;;;;0.83;95.17;101059.50;5063087;28;20107;-72
2023/02/06 03:13:37;;;;;;;32.88;15.80;;;;;;;0.57;95.75;101056.44;5062689;28;20029;-73
2023/02/06 03:16:11;;;;;;;27.17;17.10;;;;;;;0.59;96.67;101060.59;5066888;28;20029;-73
2023/02/06 03:18:45;;;;;;;29.17;15.77;;;;;;;0.56;96.93;101053.00;5063019;28;20028;-74
2023/02/06 03:21:15;;;;;;;39.03;17.33;;;;;;;1.24;97.19;101049.69;5063040;28;20025;-75
2023/02/06 03:23:44;;;;;;;32.75;16.70;;;;;;;0.91;95.87;101049.13;5060894;28;20020;-73
2023/02/06 03:26:13;;;;;;;36.45;17.65;;;;;;;1.42;95.74;101052.47;5062136;28;20029;-74
2023/02/06 03:28:46;;;;;;;36.83;16.88;;;;;;;1.35;95.30;101049.56;5062417;28;20048;-74
2023/02/06 03:31:18;;;;;;;30.83;15.48;;;;;;;1.58;93.81;101047.50;5059509;28;20097;-74
2023/02/06 03:33:57;;;;;;;37.08;17.52;;;;;;;1.45;93.28;101050.41;5066642;28;20025;-73
2023/02/06 03:36:23;;;;;;;36.20;18.52;;;;;;;1.17;94.30;101045.91;5062066;28;21093;-73
2023/02/06 03:38:51;;;;;;;36.00;17.65;;;;;;;0.82;94.71;101055.19;5057034;28;20033;-75
2023/02/06 03:41:20;;;;;;;38.08;19.02;;;;;;;0.90;95.21;101052.72;5060610;28;20024;-74
2023/02/06 03:43:48;;;;;;;42.03;20.08;;;;;;;0.83;95.30;101062.13;5055155;28;20023;-74
2023/02/06 03:46:16;;;;;;;44.22;19.67;;;;;;;0.88;95.45;101065.16;5059297;28;20380;-75
2023/02/06 03:48:46;;;;;;;40.85;20.38;;;;;;;0.65;96.47;101060.09;5058923;28;20389;-73
2023/02/06 03:51:28;;;;;;;35.28;18.15;;;;;;;1.72;94.58;101035.75;5064656;28;20024;-74
2023/02/06 03:53:56;;;;;;;35.28;17.83;;;;;;;1.68;94.05;101055.41;5060021;28;20520;-73
2023/02/06 03:56:31;;;;;;;39.63;19.73;;;;;;;1.35;93.68;101053.97;5060898;28;20093;-75
2023/02/06 03:58:57;;;;;;;38.67;18.90;;;;;;;1.67;94.02;101051.94;5058944;28;20047;-74
2023/02/06 04:01:23;;;;;;;42.97;21.13;;;;;;;1.65;92.45;101051.25;5064565;28;20485;-75
2023/02/06 04:03:48;;;;;;;37.40;18.20;;;;;;;2.16;91.76;101053.63;5065766;28;20670;-74
2023/02/06 04:06:14;;;;;;;38.97;19.67;;;;;;;2.15;91.01;101041.41;5063204;28;20028;-74
2023/02/06 04:08:39;;;;;;;31.63;17.13;;;;;;;2.25;90.56;101036.94;5062728;28;20078;-75
2023/02/06 04:11:05;;;;;;;33.30;16.77;;;;;;;1.90;90.64;101034.91;5066218;28;20033;-75
2023/02/06 04:13:30;;;;;;;30.15;17.30;;;;;;;2.00;90.94;101040.16;5065162;28;20513;-73
2023/02/06 04:15:55;;;;;;;29.80;15.60;;;;;;;1.86;90.34;101037.94;5056334;28;20033;-76
2023/02/06 04:18:22;;;;;;;36.33;16.30;;;;;;;1.01;92.56;101039.47;5059535;28;20028;-74
2023/02/06 04:20:50;;;;;;;33.72;17.17;;;;;;;1.64;93.21;101048.75;5062864;28;20035;-74
2023/02/06 04:23:18;;;;;;;30.38;16.30;;;;;;;1.25;93.74;101037.31;5061723;28;20048;-74
2023/02/06 04:25:44;;;;;;;31.25;15.60;;;;;;;1.39;93.00;101050.94;5056673;28;20074;-74
2023/02/06 04:28:09;;;;;;;36.58;17.25;;;;;;;1.59;93.03;101053.59;5058820;28;20032;-76
2023/02/06 04:30:34;;;;;;;32.28;16.33;;;;;;;1.64;93.35;101051.41;5055828;28;20051;-73
2023/02/06 04:33:00;;;;;;;33.38;15.45;;;;;;;1.51;92.17;101049.00;5062797;28;20040;-76
2023/02/06 04:35:25;;;;;;;31.92;15.38;;;;;;;1.58;92.45;101052.75;5063549;28;20381;-73
2023/02/06 04:37:51;;;;;;;30.95;14.80;;;;;;;1.25;92.38;101053.09;5058555;28;20025;-73
2023/02/06 04:40:16;;;;;;;26.60;14.85;;;;;;;1.79;92.63;101042.13;5055406;28;20033;-76
2023/02/06 04:42:41;;;;;;;30.17;16.50;;;;;;;1.83;91.89;101044.34;5061053;28;20507;-74
2023/02/06 04:45:08;;;;;;;24.65;12.48;;;;;;;2.04;91.37;101031.00;5058299;28;20047;-73
2023/02/06 04:47:33;;;;;;;26.10;14.10;;;;;;;2.16;90.17;101033.34;5059262;28;20052;-74
2023/02/06 04:49:58;;;;;;;26.20;13.23;;;;;;;2.17;90.22;101028.91;5059448;28;20068;-73
2023/02/06 04:52:24;;;;;;;27.15;14.50;;;;;;;2.24;89.47;101017.69;5062636;28;20047;-75
2023/02/06 04:54:49;;;;;;;18.95;13.32;;;;;;;2.28;89.69;101015.59;5060782;28;20033;-74
2023/02/06 04:57:14;;;;;;;23.33;12.25;;;;;;;2.30;89.82;101026.81;5055014;28;20069;-74
2023/02/06 04:59:40;;;;;;;33.10;13.73;;;;;;;2.22;88.90;101029.34;5060905;28;20032;-78
2023/02/06 05:02:05;;;;;;;26.77;12.82;;;;;;;2.32;89.35;101030.13;5058949;28;20071;-72
2023/02/06 05:04:30;;;;;;;21.65;12.20;;;;;;;2.06;89.17;101032.53;5064685;28;20059;-72
2023/02/06 05:06:56;;;;;;;22.38;13.43;;;;;;;2.25;89.41;101036.94;5060552;28;20071;-72
2023/02/06 05:09:21;;;;;;;22.35;11.85;;;;;;;2.14;90.03;101042.38;5064091;28;20037;-72
2023/02/06 05:11:47;;;;;;;21.98;11.93;;;;;;;1.94;89.60;101032.84;5064439;28;20118;-72
2023/02/06 05:14:12;;;;;;;22.17;12.70;;;;;;;2.03;89.98;101030.19;5063645;28;20020;-72
2023/02/06 05:16:37;;;;;;;24.63;12.68;;;;;;;2.05;90.12;101033.50;5054776;28;20048;-72
2023/02/06 05:19:03;;;;;;;24.33;12.35;;;;;;;1.80;89.54;101035.88;5058278;28;20028;-72
2023/02/06 05:21:28;;;;;;;29.00;12.65;;;;;;;2.05;89.39;101037.94;5060249;28;20481;-72
2023/02/06 05:23:53;;;;;;;22.65;12.05;;;;;;;1.58;89.81;101046.66;5060589;28;20446;-72
2023/02/06 05:26:19;;;;;;;24.88;12.23;;;;;;;1.40;89.69;101041.22;5065675;28;20070;-72
2023/02/06 05:28:45;;;;;;;22.05;12.65;;;;;;;1.39;90.69;101058.84;5057159;28;20078;-72
2023/02/06 05:31:17;;;;;;;24.70;12.25;;;;;;;1.31;92.00;101058.66;5058983;28;20064;-72
2023/02/06 05:33:42;;;;;;;21.85;13.25;;;;;;;1.65;91.58;101053.03;5063697;28;20041;-72
2023/02/06 05:36:08;;;;;;;24.35;13.40;;;;;;;1.83;90.87;101048.78;5064445;28;20404;-72
2023/02/06 05:38:33;;;;;;;24.15;11.65;;;;;;;2.22;89.79;101061.78;5065337;28;20074;-72
2023/02/06 05:40:59;;;;;;;25.88;12.02;;;;;;;2.34;89.01;101065.06;5058507;28;20025;-72
2023/02/06 05:43:25;;;;;;;24.70;13.38;;;;;;;2.30;88.77;101071.59;5064099;28;20032;-71
2023/02/06 05:45:50;;;;;;;20.13;12.05;;;;;;;2.23;89.02;101070.50;5062283;28;20025;-71
2023/02/06 05:48:16;;;;;;;27.63;13.98;;;;;;;2.18;88.75;101070.09;5061120;28;20029;-72
2023/02/06 05:50:42;;;;;;;24.45;12.18;;;;;;;2.19;89.45;101064.69;5060760;28;20064;-72
2023/02/06 05:53:07;;;;;;;20.23;11.98;;;;;;;2.08;89.12;101075.38;5066451;28;20632;-72
2023/02/06 05:55:33;;;;;;;24.48;11.90;;;;;;;2.26;88.80;101076.34;5063112;28;20025;-72
2023/02/06 05:57:58;;;;;;;21.88;12.27;;;;;;;2.34;87.96;101074.81;5065828;28;20035;-72
2023/02/06 06:00:23;;;;;;;20.30;11.35;;;;;;;2.37;87.88;101070.06;5069336;28;20090;-72
2023/02/06 06:02:49;;;;;;;19.65;10.75;;;;;;;2.27;88.33;101074.53;5062454;28;20087;-71
2023/02/06 06:05:14;;;;;;;19.05;10.77;;;;;;;2.34;88.03;101072.16;5061964;28;20035;-72
2023/02/06 06:07:40;;;;;;;20.42;12.57;;;;;;;2.36;87.98;101068.41;5066881;28;20033;-71
2023/02/06 06:10:05;;;;;;;17.55;11.25;;;;;;;2.27;88.00;101064.00;5061980;28;20083;-71
2023/02/06 06:12:31;;;;;;;22.42;12.95;;;;;;;2.26;88.36;101065.78;5068525;28;20028;-72
2023/02/06 06:14:56;;;;;;;20.73;12.77;;;;;;;2.35;88.26;101069.38;5066123;28;20040;-72
2023/02/06 06:17:22;;;;;;;23.02;13.48;;;;;;;2.23;88.36;101073.13;5057079;28;20120;-71
2023/02/06 06:19:47;;;;;;;20.45;12.30;;;;;;;2.37;88.04;101077.13;5061328;28;20534;-71
2023/02/06 06:22:12;;;;;;;23.00;13.18;;;;;;;2.42;87.77;101077.56;5063991;28;20072;-71
2023/02/06 06:24:38;;;;;;;21.70;12.55;;;;;;;2.35;87.89;101077.28;5059015;28;20106;-71
2023/02/06 06:27:03;;;;;;;20.88;12.32;;;;;;;2.37;87.52;101066.59;5056968;28;20136;-71
2023/02/06 06:29:28;;;;;;;20.10;10.85;;;;;;;2.28;88.33;101073.53;5067089;28;20480;-70
2023/02/06 06:31:54;;;;;;;18.52;11.18;;;;;;;2.40;87.99;101075.06;5066826;28;20044;-70
2023/02/06 06:34:20;;;;;;;17.15;11.27;;;;;;;2.44;87.79;101065.91;5071968;28;20031;-71
2023/02/06 06:36:45;;;;;;;19.27;11.25;;;;;;;2.50;87.57;101067.97;5067636;28;20397;-73
2023/02/06 06:39:11;;;;;;;21.80;11.27;;;;;;;2.58;86.98;101072.53;5069722;28;20052;-71
2023/02/06 06:41:36;;;;;;;17.17;9.25;;;;;;;2.47;87.22;101080.59;5067508;28;20052;-71
2023/02/06 06:44:02;;;;;;;21.38;10.88;;;;;;;2.30;87.36;101082.13;5064687;28;20035;-72
2023/02/06 06:46:27;;;;;;;26.92;12.35;;;;;;;1.72;88.26;101083.13;5066728;28;20039;-72
2023/02/06 06:48:53;;;;;;;21.23;12.32;;;;;;;1.37;88.97;101083.63;5062534;28;20529;-72
2023/02/06 06:51:18;;;;;;;22.27;12.95;;;;;;;1.72;89.22;101091.03;5061834;28;20045;-72
2023/02/06 06:53:43;;;;;;;26.48;11.25;;;;;;;2.08;87.50;101088.53;5064686;28;20496;-72
2023/02/06 06:56:12;;;;;;;21.00;10.30;;;;;;;2.27;86.92;101090.34;5062990;28;20044;-72
2023/02/06 06:58:37;;;;;;;23.58;10.82;;;;;;;2.27;86.59;101088.50;5064709;28;20303;-73
2023/02/06 07:01:03;;;;;;;27.77;12.95;;;;;;;1.93;87.37;101089.94;5059511;28;20045;-71
2023/02/06 07:03:29;;;;;;;21.65;9.60;;;;;;;2.10;87.36;101089.22;5065107;28;20508;-72
2023/02/06 07:05:54;;;;;;;21.98;11.52;;;;;;;2.14;87.05;101089.81;5060121;28;20048;-72
2023/02/06 07:08:19;;;;;;;23.02;11.73;;;;;;;1.71;87.94;101095.44;5066253;28;20024;-73
2023/02/06 07:10:46;;;;;;;25.80;13.63;;;;;;;1.76;88.89;101103.78;5064087;28;20041;-72
2023/02/06 07:13:12;;;;;;;27.30;13.88;;;;;;;1.64;88.40;101102.22;5064902;28;20020;-74
2023/02/06 07:15:37;;;;;;;17.25;11.45;;;;;;;1.88;88.20;101102.66;5068513;28;20381;-71
2023/02/06 07:18:02;;;;;;;28.10;11.82;;;;;;;2.00;87.91;101111.28;5067245;28;20408;-74
2023/02/06 07:20:28;;;;;;;23.10;12.05;;;;;;;1.96;87.36;101102.00;5055200;28;20520;-74
2023/02/06 07:22:53;;;;;;;20.58;12.32;;;;;;;1.94;87.85;101104.78;5067349;28;20088;-73
2023/02/06 07:25:20;;;;;;;26.70;13.52;;;;;;;1.71;88.58;101102.50;5066967;28;20032;-74
2023/02/06 07:27:46;;;;;;;23.70;12.55;;;;;;;1.49;88.99;101106.19;5060776;28;20020;-74
2023/02/06 07:30:13;;;;;;;20.08;11.65;;;;;;;1.67;90.11;101104.59;5058879;28;20447;-74
2023/02/06 07:32:38;;;;;;;22.33;12.13;;;;;;;1.82;89.85;101091.84;5058156;28;20024;-74
2023/02/06 07:35:05;;;;;;;21.83;11.82;;;;;;;1.91;89.07;101105.03;5056119;28;20036;-75
2023/02/06 07:37:30;;;;;;;21.25;12.38;;;;;;;1.87;89.27;101100.16;5056791;28;20447;-75
2023/02/06 07:39:55;;;;;;;20.45;10.93;;;;;;;1.94;89.29;101091.59;5053978;28;20036;-74
2023/02/06 07:42:21;;;;;;;19.88;11.45;;;;;;;1.90;89.04;101086.75;5059360;28;20056;-74
2023/02/06 07:44:47;;;;;;;18.02;10.65;;;;;;;1.93;88.99;101075.91;5038769;28;20116;-75
2023/02/06 07:47:12;;;;;;;23.08;12.23;;;;;;;1.84;88.92;101085.47;5059364;28;20040;-74
2023/02/06 07:49:37;;;;;;;20.20;11.77;;;;;;;1.86;89.36;101087.97;5060432;28;20538;-74
2023/02/06 07:52:03;;;;;;;20.42;13.18;;;;;;;1.50;89.54;101095.56;5059567;28;20037;-74
2023/02/06 07:54:28;;;;;;;27.30;13.05;;;;;;;1.83;89.76;101091.72;5056720;28;20412;-72
2023/02/06 07:56:54;;;;;;;21.40;11.35;;;;;;;1.98;89.17;101095.63;5058891;28;20072;-72
2023/02/06 07:59:19;;;;;;;23.05;12.05;;;;;;;1.97;89.53;101088.66;5052759;28;20384;-73
2023/02/06 08:01:44;;;;;;;25.90;12.57;;;;;;;1.88;89.03;101088.69;5060765;28;20480;-73
2023/02/06 08:04:10;;;;;;;23.98;11.10;;;;;;;1.52;89.20;101093.63;5063289;28;20025;-72
2023/02/06 08:06:39;;;;;;;33.83;12.70;;;;;;;1.43;90.07;101102.31;5062270;28;20035;-72
2023/02/06 08:09:05;;;;;;;23.55;11.18;;;;;;;1.55;90.70;101108.31;5057837;28;20037;-72
2023/02/06 08:11:30;;;;;;;18.23;10.57;;;;;;;1.66;90.33;101107.38;5058447;28;20427;-72
2023/02/06 08:13:56;;;;;;;21.83;11.20;;;;;;;1.02;90.93;101104.25;5061935;28;20412;-72
2023/02/06 08:16:22;;;;;;;21.50;11.85;;;;;;;1.35;91.46;101104.81;5065403;28;20032;-72
2023/02/06 08:18:48;;;;;;;21.80;10.32;;;;;;;1.62;91.58;101109.41;5060116;28;20378;-73
2023/02/06 08:21:17;;;;;;;20.52;9.18;;;;;;;0.66;90.27;101100.31;5061711;28;20031;-72
2023/02/06 08:23:43;;;;;;;19.38;9.45;;;;;;;0.60;91.33;101111.38;5064718;28;20028;-72
2023/02/06 08:26:15;;;;;;;20.02;9.25;;;;;;;0.63;91.27;101108.50;5067735;28;20106;-72
2023/02/06 08:28:42;;;;;;;20.42;10.23;;;;;;;0.07;91.26;101107.94;5065364;28;20025;-72
2023/02/06 08:31:14;;;;;;;19.67;10.77;;;;;;;0.31;93.51;101098.03;5064797;28;20172;-72
2023/02/06 08:33:40;;;;;;;20.30;9.63;;;;;;;0.45;92.21;101086.38;5064444;28;20020;-72
2023/02/06 08:36:06;;;;;;;20.05;8.38;;;;;;;0.57;92.25;101096.69;5058369;28;20515;-72
2023/02/06 08:38:31;;;;;;;18.77;10.18;;;;;;;1.50;93.13;101086.81;5061120;28;20032;-72
2023/02/06 08:40:57;;;;;;;27.55;9.02;;;;;;;1.19;90.88;101087.84;5067616;28;20033;-72
2023/02/06 08:43:22;;;;;;;26.38;10.52;;;;;;;1.48;91.56;101097.50;5063151;28;20040;-72
2023/02/06 08:45:49;;;;;;;18.23;8.20;;;;;;;0.85;90.14;101100.47;5056575;28;20033;-72
2023/02/06 08:48:15;;;;;;;20.15;9.30;;;;;;;1.19;91.97;101090.47;5059262;28;20039;-72
2023/02/06 08:50:41;;;;;;;17.80;8.80;;;;;;;1.52;91.14;101093.63;5061953;28;20020;-72
2023/02/06 08:53:06;;;;;;;16.92;8.57;;;;;;;0.92;91.70;101096.31;5055628;28;20033;-71
2023/02/06 08:55:31;;;;;;;19.00;9.50;;;;;;;0.83;92.28;101091.84;5056294;28;20850;-72
2023/02/06 08:57:57;;;;;;;21.90;9.23;;;;;;;0.88;92.25;101084.41;5052060;28;20143;-72
2023/02/06 09:00:25;;;;;;;20.27;8.73;;;;;;;0.14;91.46;101100.41;5064528;28;20063;-71
2023/02/06 09:02:52;;;;;;;24.15;9.20;;;;;;;0.18;92.19;101089.50;5048384;28;20028;-74
2023/02/06 09:05:17;;;;;;;24.20;10.02;;;;;;;0.29;91.57;101091.25;5065894;28;20039;-72
2023/02/06 09:07:43;;;;;;;22.33;9.32;;;;;;;0.65;92.35;101082.91;5065116;28;20390;-73
2023/02/06 09:10:08;;;;;;;20.00;9.68;;;;;;;0.56;91.90;101073.19;5065554;28;20056;-71
2023/02/06 09:12:34;;;;;;;22.65;8.43;;;;;;;0.56;90.91;101076.66;5069489;28;20028;-72
2023/02/06 09:14:59;;;;;;;16.90;8.48;;;;;;;0.82;91.43;101082.31;5067287;28;20185;-73
2023/02/06 09:17:24;;;;;;;28.13;9.73;;;;;;;0.99;91.45;101075.59;5072529;28;20488;-72
2023/02/06 09:19:50;;;;;;;24.10;9.50;;;;;;;0.81;90.84;101078.00;5070133;28;20032;-71
2023/02/06 09:22:15;;;;;;;30.58;11.05;;;;;;;0.39;90.74;101079.88;5067712;28;20484;-71
2023/02/06 09:24:40;;;;;;;24.05;10.43;;;;;;;0.30;91.50;101074.53;5067947;28;20024;-71
2023/02/06 09:27:06;;;;;;;16.50;8.88;;;;;;;0.43;91.56;101065.50;5064145;28;20167;-72
2023/02/06 09:29:31;;;;;;;16.88;9.02;;;;;;;0.16;89.57;101069.59;5065340;28;20044;-71
2023/02/06 09:31:57;;;;;;;24.15;9.80;;;;;;;0.57;90.69;101057.28;5060737;28;20051;-71
2023/02/06 09:34:24;;;;;;;24.92;10.43;;;;;;;0.91;90.91;101054.41;5063596;28;20048;-72
2023/02/06 09:36:50;;;;;;;18.90;9.43;;;;;;;0.42;90.09;101058.56;5084809;28;20086;-71
2023/02/06 09:39:15;;;;;;;22.67;9.20;;;;;;;0.45;90.13;101062.75;5059599;28;20120;-71
2023/02/06 09:41:48;;;;;;;25.05;11.00;;;;;;;0.67;91.16;101067.84;5058265;28;20641;-71
2023/02/06 09:44:42;;;;;;;25.95;11.35;;;;;;;0.61;91.25;101071.00;5058297;28;20032;-74
2023/02/06 09:47:25;;;;;;;23.58;10.68;;;;;;;0.55;90.85;101068.88;5056186;28;20028;-73
2023/02/06 09:50:01;;;;;;;21.25;10.88;;;;;;;0.72;90.81;101077.00;5064087;28;20025;-72
2023/02/06 09:52:51;;;;;;;23.30;9.90;;;;;;;1.23;90.57;101076.94;5065431;28;20028;-72
2023/02/06 09:55:36;;;;;;;25.33;10.18;;;;;;;1.23;89.28;101068.19;5063609;28;20028;-72
2023/02/06 09:58:39;;;;;;;23.90;8.98;;;;;;;1.24;88.63;101064.63;5056851;28;20041;-71
2023/02/06 10:01:11;;;;;;;16.08;8.52;;;;;;;1.39;89.08;101060.63;5059530;28;20029;-71
2023/02/06 10:03:43;;;;;;;19.10;7.78;;;;;;;1.79;89.44;101057.91;5058681;28;20032;-72
2023/02/06 10:06:28;;;;;;;25.98;7.47;;;;;;;0.91;88.00;101059.66;5058113;28;20025;-71
2023/02/06 10:09:19;;;;;;;22.98;12.07;;;;;;;1.43;89.82;101060.22;5069812;28;20413;-72
2023/02/06 10:11:57;;;;;;;24.02;9.05;;;;;;;1.34;88.16;101054.94;5061050;28;20040;-72
2023/02/06 10:14:27;;;;;;;28.63;9.43;;;;;;;0.66;88.12;101053.03;5067063;28;20074;-72
2023/02/06 10:16:57;;;;;;;20.50;7.60;;;;;;;0.56;89.43;101046.91;5064864;28;20047;-72
2023/02/06 10:19:49;;;;;;;22.17;9.77;;;;;;;0.49;90.03;101037.88;5065354;28;20025;-72
2023/02/06 10:22:14;;;;;;;20.38;8.23;;;;;;;1.71;92.55;101031.44;5066982;28;20028;-72
2023/02/06 10:25:23;;;;;;;27.02;8.93;;;;;;;1.37;90.98;101020.47;5065515;28;20052;-72
2023/02/06 10:27:56;;;;;;;26.30;8.75;;;;;;;1.43;91.05;101015.50;5050723;28;20332;-72
2023/02/06 10:30:34;;;;;;;18.88;8.80;;;;;;;2.02;90.62;101004.00;5068686;28;20476;-72
2023/02/06 10:33:10;;;;;;;24.80;8.80;;;;;;;1.22;88.63;101003.44;5065958;28;20111;-73
2023/02/06 10:36:17;;;;;;;22.95;7.35;;;;;;;0.66;89.07;101011.00;5060063;28;20029;-72
2023/02/06 10:38:49;;;;;;;15.95;7.30;;;;;;;0.94;90.02;101009.44;5066129;28;20049;-72
2023/02/06 10:41:30;;;;;;;27.73;8.80;;;;;;;0.81;89.20;101000.97;5064005;28;20031;-72
2023/02/06 10:44:20;;;;;;;19.85;8.27;;;;;;;1.24;89.56;100993.59;5065013;28;20025;-72
2023/02/06 10:46:51;;;;;;;20.77;8.55;;;;;;;1.01;89.13;100998.25;5061460;28;20069;-72
2023/02/06 10:49:29;;;;;;;18.10;7.60;;;;;;;1.29;89.43;100996.66;5065612;28;20289;-72
2023/02/06 10:52:01;;;;;;;22.13;8.82;;;;;;;1.08;89.71;101004.63;5069515;28;20032;-72
2023/02/06 10:54:37;;;;;;;21.50;7.45;;;;;;;1.14;90.35;100998.84;5064924;28;20064;-72
2023/02/06 10:57:13;;;;;;;25.30;8.63;;;;;;;1.08;89.09;101004.63;5058929;28;20064;-72
2023/02/06 10:59:43;;;;;;;25.70;7.28;;;;;;;0.84;89.10;101001.53;5058719;28;20127;-72
2023/02/06 11:02:08;;;;;;;21.38;8.40;;;;;;;1.09;89.20;100989.69;5059281;28;20067;-72
2023/02/06 11:04:42;;;;;;;26.15;8.68;;;;;;;1.89;91.54;100985.03;5062437;28;20420;-73
2023/02/06 11:07:16;;;;;;;20.95;8.55;;;;;;;1.64;89.17;100982.97;5061175;28;20434;-73
2023/02/06 11:09:42;;;;;;;22.88;7.90;;;;;;;1.71;88.66;100968.25;5050719;28;20031;-72
2023/02/06 11:12:26;;;;;;;21.08;7.32;;;;;;;1.28;89.30;100985.31;5055351;28;20120;-72
2023/02/06 11:14:54;;;;;;;20.42;6.75;;;;;;;0.90;88.04;100984.38;5062138;28;20366;-72
2023/02/06 11:17:22;;;;;;;28.90;8.80;;;;;;;1.21;88.85;100988.59;5066751;28;20055;-71
2023/02/06 11:19:51;;;;;;;31.80;7.78;;;;;;;1.71;88.96;100989.31;5060724;28;20028;-72
2023/02/06 11:22:26;;;;;;;20.45;8.10;;;;;;;1.72;88.67;100980.47;5058518;28;20067;-72
2023/02/06 11:25:06;;;;;;;26.05;10.10;;;;;;;1.38;87.37;100987.94;5062296;28;20035;-72
2023/02/06 11:27:34;;;;;;;27.90;8.68;;;;;;;1.14;87.77;100993.56;5054497;28;20069;-72